• Join FlightAware (Why Join?)
  • Login
  • US Flag 
12:54AM EDT


 

Airport Tracker/Info


-or-


 

Live Flight TrackerFlight Track Log ✈ CHQ3037 ✈ 15-Apr-2013 ✈ KISP - KDCA

Flight Track Log - Related Links

Times and Time Zones

All times are in EDT time to prevent confusion due to time zone crossing. See the CHQ3037 flight status page for this flight to view local times or setup timezone preferences in your user account.

Time Position Orientation Groundspeed Altitude Reporting Facility
EDT Latitude Longitude Course Direction KTS MPH feet Rate Location/Type
06:28AM 40.8833 -73.0000 229° Southwest 188 216 3,200  Level New York TRACON
06:29AM 40.7547 -72.8068 105° East  Level FlightAware Approximate
06:30AM 40.7478 -72.6946 97° East  Level FlightAware Approximate
06:30AM 40.8469 -72.8900 114° Southeast 209 241 6,200  Level Boston Center
06:31AM 40.7374 -72.5899 97° East  Level FlightAware Approximate
06:31AM 40.8222 -72.8131 113° Southeast 219 252 8,100  Level Boston Center
06:32AM 40.7055 -72.5652 221° Southwest  Level FlightAware Approximate
06:32AM 40.7786 -72.7333 126° Southeast 240 276 9,800  Level Boston Center
06:33AM 40.6451 -72.6343 221° Southwest  Level FlightAware Approximate
06:33AM 40.6892 -72.6892 159° South 265 305 11,500  Level Boston Center
06:34AM 40.5761 -72.7026 229° Southwest  Level FlightAware Approximate
06:34AM 40.6078 -72.7025 187° South 281 323 13,300  Level Boston Center
06:35AM 40.5453 -72.7814 224° Southwest 261 300 14,900 1,560 Climbing Boston Center
06:37AM 40.4128 -72.9300 221° Southwest 309 356 18,000 1,320 Climbing New York Center
06:38AM 40.3511 -73.0042 223° Southwest 331 381 18,900 900 Climbing New York Center
06:39AM 40.2639 -73.0967 219° Southwest 348 400 19,900 960 Climbing New York Center
06:40AM 40.1850 -73.1864 221° Southwest 370 426 20,900 960 Climbing New York Center
06:41AM 40.1017 -73.2783 220° Southwest 383 441 21,900 360 Climbing New York Center
06:43AM 39.9444 -73.4508 220° Southwest 395 455 22,000  Climbing Washington Center
06:44AM 39.8708 -73.5314 220° Southwest 376 433 22,000  Level Washington Center
06:45AM 39.7972 -73.6119 220° Southwest 362 417 22,000  Level Washington Center
06:46AM 39.7233 -73.6922 220° Southwest 351 404 22,000  Level Washington Center
06:47AM 39.6497 -73.7725 220° Southwest 351 404 22,000  Level Washington Center
06:48AM 39.5739 -73.8550 220° Southwest 351 404 22,000  Level Washington Center
06:49AM 39.4958 -73.9375 219° Southwest 351 404 22,000  Level Washington Center
06:50AM 39.4114 -74.0283 220° Southwest 372 428 22,000 -300 Level Washington Center
06:51AM 39.3253 -74.1186 219° Southwest 377 434 21,400 -900 Descending Washington Center
06:52AM 39.2469 -74.2033 220° Southwest 377 434 20,200 -1,320 Descending Washington Center
06:53AM 39.1728 -74.2878 221° Southwest 371 427 18,800 -1,320 Descending Washington Center
06:54AM 39.0986 -74.3667 220° Southwest 366 421 17,600 -1,320 Descending Washington Center
06:55AM 39.0203 -74.4481 219° Southwest 366 421 16,200 -840 Descending Washington Center
06:56AM 38.9461 -74.5347 222° Southwest 366 421 16,000 -120 Descending Washington Center
06:57AM 38.9158 -74.6500 251° West 347 399 16,000  Level Washington Center
06:58AM 38.8939 -74.7756 257° West 353 406 16,000  Level Washington Center
06:59AM 38.8717 -74.8983 257° West 358 412 16,000  Level Washington Center
07:00AM 38.8472 -75.0267 256° West 363 418 16,000  Level Washington Center
07:01AM 38.8228 -75.1547 256° West 368 423 16,000  Level Washington Center
07:02AM 38.8064 -75.2772 260° West 368 423 16,000 -480 Level Washington Center
07:03AM 38.7983 -75.4000 265° West 363 418 15,100 -1,080 Descending Washington Center
07:04AM 38.7903 -75.5225 265° West 358 412 13,900 -1,200 Descending Washington Center
07:05AM 38.7839 -75.6475 266° West 352 405 12,700 -1,260 Descending Washington Center
07:06AM 38.7736 -75.7675 264° West 347 399 11,400 -900 Descending Washington Center
07:07AM 38.7692 -75.8872 267° West 347 399 11,000 -240 Descending Washington Center
07:08AM 38.7606 -76.0017 265° West 340 391 11,000 -240 Level Washington Center
07:09AM 38.7619 -76.1267 271° West 340 391 10,600 -540 Descending Washington Center
07:10AM 38.7700 -76.2333 276° West 330 380 10,000 -300 Descending Washington Center
07:11AM 38.7797 -76.3372 277° West 311 358 10,000  Level Washington Center
07:12AM 38.7894 -76.4439 277° West 306 352 10,000  Level Washington Center
07:13AM 38.7992 -76.5453 277° West 301 346 10,000  Level Washington Center
07:14AM 38.8022 -76.6544 272° West 301 346 10,000  Level Washington Center
07:16AM 38.8500 -76.8500 287° West 309 356 10,000  Level Potomac TRACON
07:17AM 38.9000 -76.9167 314° West 306 352 10,000  Level Potomac TRACON
07:18AM 38.9500 -77.0000 308° West 309 356 10,000 -480 Level Potomac TRACON
07:19AM 39.0167 -77.0667 322° Northwest 291 335 9,100 -1,320 Descending Potomac TRACON
07:20AM 39.0667 -77.1333 314° West 273 314 7,600 -1,680 Descending Potomac TRACON
07:21AM 39.0833 -77.2167 284° West 255 293 5,800 -1,740 Descending Potomac TRACON
07:22AM 39.0333 -77.2333 195° South 232 267 4,200 -1,440 Descending Potomac TRACON
07:23AM 38.9833 -77.1833 142° Southeast 196 226 3,000 -960 Descending Potomac TRACON
07:24AM 38.9500 -77.1333 131° Southeast 175 201 2,300 -720 Descending Potomac TRACON
07:25AM 38.9167 -77.1000 142° Southeast 154 177 1,600 -720 Descending Potomac TRACON